createdAt,value
2018-01-20T00:00:47.574Z,66.20
2018-01-20T00:03:15.194Z,66.20
2018-01-20T00:05:42.781Z,67.40
2018-01-20T00:08:10.366Z,68.50
2018-01-20T00:10:49.756Z,69.10
2018-01-20T00:13:17.359Z,69.90
2018-01-20T00:15:44.963Z,70.40
2018-01-20T00:18:12.670Z,70.80
2018-01-20T00:20:40.288Z,71.20
2018-01-20T00:23:08.644Z,72.00
2018-01-20T00:25:36.252Z,72.00
2018-01-20T00:28:03.829Z,72.20
2018-01-20T00:30:31.492Z,72.30
2018-01-20T00:32:59.086Z,72.80
2018-01-20T00:35:26.669Z,72.80
2018-01-20T00:37:54.267Z,72.70
2018-01-20T00:40:22.663Z,72.90
2018-01-20T00:42:50.272Z,72.90
2018-01-20T00:45:17.947Z,73.10
2018-01-20T00:50:24.827Z,73.30
2018-01-20T00:52:52.415Z,73.20
2018-01-20T00:55:21.547Z,73.30
2018-01-20T00:57:49.883Z,73.20
2018-01-20T01:00:17.483Z,73.20
2018-01-20T01:02:45.949Z,73.60
2018-01-20T01:05:13.537Z,73.50
2018-01-20T01:07:41.911Z,73.60
2018-01-20T01:10:09.639Z,73.60
2018-01-20T01:12:37.597Z,73.50
2018-01-20T01:15:05.355Z,73.40
2018-01-20T01:17:32.950Z,73.40
2018-01-20T01:20:00.597Z,73.20
2018-01-20T01:22:28.184Z,73.10
2018-01-20T01:24:55.806Z,72.90
2018-01-20T01:27:24.160Z,73.20
2018-01-20T01:29:51.756Z,73.20
2018-01-20T01:32:19.372Z,73.50
2018-01-20T01:34:46.970Z,73.30
2018-01-20T01:37:15.342Z,73.10
2018-01-20T01:39:42.940Z,73.10
2018-01-20T01:42:10.566Z,73.20
2018-01-20T01:44:38.134Z,73.10
2018-01-20T01:47:05.730Z,72.90
2018-01-20T01:49:33.330Z,73.00
2018-01-20T01:52:00.921Z,73.00
2018-01-20T01:54:28.531Z,72.90
2018-01-20T01:56:56.110Z,73.10
2018-01-20T01:59:23.694Z,72.90
2018-01-20T02:01:51.301Z,73.00
2018-01-20T02:04:18.904Z,73.10
2018-01-20T02:06:46.540Z,72.90
2018-01-20T02:09:14.899Z,73.20
2018-01-20T02:11:42.488Z,73.20
2018-01-20T02:14:10.854Z,73.30
2018-01-20T02:16:39.309Z,73.30
2018-01-20T02:19:07.070Z,73.30
2018-01-20T02:21:34.682Z,73.20
2018-01-20T02:24:03.064Z,73.10
2018-01-20T02:26:31.445Z,73.20
2018-01-20T02:28:59.817Z,73.80
2018-01-20T02:31:27.425Z,73.10
2018-01-20T02:33:55.011Z,73.00
2018-01-20T02:36:22.787Z,73.10
2018-01-20T02:38:50.411Z,73.10
2018-01-20T02:41:18.759Z,73.10
2018-01-20T02:43:46.388Z,73.00
2018-01-20T02:46:13.971Z,72.90
2018-01-20T02:48:41.839Z,73.00
2018-01-20T02:51:09.426Z,73.10
2018-01-20T02:53:37.014Z,73.30
2018-01-20T02:56:04.615Z,73.40
2018-01-20T02:58:32.201Z,73.30
2018-01-20T03:00:59.793Z,73.20
2018-01-20T03:03:27.375Z,73.30
2018-01-20T03:05:55.765Z,73.80
2018-01-20T03:08:24.122Z,73.20
2018-01-20T03:10:52.069Z,73.20
2018-01-20T03:13:19.654Z,73.20
2018-01-20T03:15:47.239Z,73.00
2018-01-20T03:18:15.622Z,73.60
2018-01-20T03:20:43.230Z,73.00
2018-01-20T03:23:10.868Z,73.00
2018-01-20T03:25:39.234Z,72.80
2018-01-20T03:28:06.828Z,72.80
2018-01-20T03:30:34.455Z,72.80
2018-01-20T03:33:02.038Z,72.80
2018-01-20T03:35:30.776Z,72.60
2018-01-20T03:37:58.358Z,72.50
2018-01-20T03:40:25.978Z,72.40
2018-01-20T03:42:54.383Z,72.10
2018-01-20T03:45:21.966Z,72.10
2018-01-20T03:47:49.588Z,71.90
2018-01-20T03:50:17.926Z,71.60
2018-01-20T03:52:45.527Z,71.60
2018-01-20T03:55:13.900Z,71.70
2018-01-20T03:57:41.492Z,71.70
2018-01-20T04:00:09.857Z,71.50
2018-01-20T04:02:38.222Z,71.40
2018-01-20T04:05:07.363Z,71.40
2018-01-20T04:07:34.969Z,71.40
2018-01-20T04:10:02.596Z,71.20
2018-01-20T04:12:30.192Z,71.30
2018-01-20T04:14:57.777Z,71.10
2018-01-20T04:17:25.404Z,71.10
2018-01-20T04:19:53.020Z,71.20
2018-01-20T04:22:20.640Z,71.60
2018-01-20T04:24:48.230Z,72.00
2018-01-20T04:27:15.839Z,72.50
2018-01-20T04:29:44.203Z,72.00
2018-01-20T04:32:12.553Z,71.70
2018-01-20T04:34:40.175Z,71.70
2018-01-20T04:37:08.601Z,71.90
2018-01-20T04:39:36.397Z,71.90
2018-01-20T04:42:03.985Z,71.80
2018-01-20T04:44:32.337Z,71.60
2018-01-20T04:47:00.023Z,71.60
2018-01-20T04:49:27.613Z,71.70
2018-01-20T04:51:55.260Z,72.00
2018-01-20T04:54:23.617Z,72.30
2018-01-20T04:56:51.202Z,72.30
2018-01-20T04:59:19.569Z,72.80
2018-01-20T05:01:48.731Z,72.50
2018-01-20T05:04:16.705Z,72.50
2018-01-20T05:06:44.291Z,72.50
2018-01-20T05:09:12.029Z,72.40
2018-01-20T05:11:39.622Z,72.50
2018-01-20T05:14:07.206Z,72.10
2018-01-20T05:16:34.846Z,71.30
2018-01-20T05:19:02.455Z,70.80
2018-01-20T05:21:30.050Z,69.50
2018-01-20T05:23:57.998Z,69.60
2018-01-20T05:26:25.585Z,69.10
2018-01-20T05:28:53.211Z,69.00
2018-01-20T05:31:20.798Z,68.90
2018-01-20T05:33:49.310Z,68.90
2018-01-20T05:36:17.030Z,69.00
2018-01-20T05:38:46.126Z,69.00
2018-01-20T05:41:14.793Z,69.30
2018-01-20T05:43:42.372Z,69.40
2018-01-20T05:46:10.414Z,69.50
2018-01-20T05:48:38.008Z,69.30
2018-01-20T05:51:05.590Z,68.50
2018-01-20T05:53:33.246Z,68.10
2018-01-20T05:56:00.859Z,67.70
2018-01-20T05:58:29.569Z,67.00
2018-01-20T06:00:57.153Z,67.00
2018-01-20T06:03:24.850Z,66.60
2018-01-20T06:05:52.490Z,66.20
2018-01-20T06:08:20.095Z,66.50
2018-01-20T06:10:48.506Z,66.60
2018-01-20T06:13:16.133Z,66.50
2018-01-20T06:15:44.489Z,66.10
2018-01-20T06:18:12.125Z,66.00
2018-01-20T06:20:39.689Z,65.80
2018-01-20T06:23:07.298Z,66.00
2018-01-20T06:25:35.239Z,65.60
2018-01-20T06:28:02.828Z,65.70
2018-01-20T06:30:30.407Z,65.60
2018-01-20T06:32:58.027Z,65.60
2018-01-20T06:35:25.726Z,65.70
2018-01-20T06:37:53.432Z,65.00
2018-01-20T06:40:21.790Z,64.70
2018-01-20T06:42:49.367Z,64.60
2018-01-20T06:45:16.991Z,64.50
2018-01-20T06:47:44.603Z,64.50
2018-01-20T06:50:13.139Z,64.40
2018-01-20T06:52:40.747Z,64.00
2018-01-20T06:55:08.364Z,64.20
2018-01-20T06:57:35.973Z,64.60
2018-01-20T07:00:04.331Z,64.90
2018-01-20T07:02:31.944Z,64.90
2018-01-20T07:05:00.305Z,64.80
2018-01-20T07:07:27.902Z,64.70
2018-01-20T07:09:56.249Z,64.40
2018-01-20T07:12:24.644Z,65.10
2018-01-20T07:14:53.745Z,65.70
2018-01-20T07:17:21.356Z,65.70
2018-01-20T07:19:48.985Z,65.70
2018-01-20T07:22:17.713Z,65.30
2018-01-20T07:24:45.326Z,65.70
2018-01-20T07:27:13.688Z,66.10
2018-01-20T07:29:41.296Z,66.10
2018-01-20T07:32:09.652Z,64.90
2018-01-20T07:34:37.278Z,64.90
2018-01-20T07:37:04.868Z,64.20
2018-01-20T07:39:32.512Z,63.30
2018-01-20T07:42:00.107Z,62.40
2018-01-20T07:44:27.693Z,63.40
2018-01-20T07:46:56.124Z,63.90
2018-01-20T07:49:24.460Z,62.50
2018-01-20T07:51:52.860Z,63.30
2018-01-20T07:54:21.394Z,63.00
2018-01-20T07:56:48.986Z,62.90
2018-01-20T07:59:17.366Z,51.80
2018-01-20T08:01:44.961Z,51.80
2018-01-20T08:04:13.357Z,49.60
2018-01-20T08:06:40.990Z,49.50
2018-01-20T08:09:08.626Z,49.40
2018-01-20T08:11:36.243Z,49.60
2018-01-20T08:14:04.690Z,49.60
2018-01-20T08:16:32.283Z,49.50
2018-01-20T08:19:00.684Z,50.70
2018-01-20T08:21:29.088Z,51.20
2018-01-20T08:23:56.671Z,51.20
2018-01-20T08:26:24.278Z,51.50
2018-01-20T08:28:51.857Z,53.00
2018-01-20T08:31:20.239Z,54.80
2018-01-20T08:33:48.655Z,55.80
2018-01-20T08:36:16.307Z,55.80
2018-01-20T08:38:44.705Z,57.00
2018-01-20T08:41:12.428Z,57.00
2018-01-20T08:43:40.843Z,58.60
2018-01-20T08:46:08.484Z,58.60
2018-01-20T08:48:36.857Z,59.60
2018-01-20T08:51:04.497Z,59.50
2018-01-20T08:53:32.103Z,59.30
2018-01-20T08:56:00.517Z,58.20
2018-01-20T08:58:28.135Z,58.10
2018-01-20T09:00:56.489Z,58.30
2018-01-20T09:03:24.161Z,58.30
2018-01-20T09:05:51.829Z,59.40
2018-01-20T09:08:19.553Z,59.80
2018-01-20T09:10:47.154Z,58.90
2018-01-20T09:13:15.006Z,59.50
2018-01-20T09:15:42.618Z,59.50
2018-01-20T09:18:10.974Z,60.00
2018-01-20T09:20:38.611Z,60.00
2018-01-20T09:23:06.193Z,60.20
2018-01-20T09:25:33.845Z,61.00
2018-01-20T09:28:01.468Z,61.40
2018-01-20T09:30:29.102Z,61.30
2018-01-20T09:32:56.758Z,62.50
2018-01-20T09:35:24.396Z,62.60
2018-01-20T09:37:52.089Z,62.70
2018-01-20T09:40:19.721Z,61.60
2018-01-20T09:42:48.150Z,63.30
2018-01-20T09:45:15.734Z,62.80
2018-01-20T09:47:43.342Z,63.90
2018-01-20T09:50:10.950Z,64.10
2018-01-20T09:52:38.545Z,64.30
2018-01-20T09:55:06.389Z,64.10
2018-01-20T09:57:34.029Z,64.60
2018-01-20T10:00:01.657Z,64.60
2018-01-20T10:02:30.032Z,64.30
2018-01-20T10:04:57.610Z,63.90
2018-01-20T10:07:26.080Z,62.70
2018-01-20T10:09:53.676Z,62.70
2018-01-20T10:12:22.078Z,63.00
2018-01-20T10:14:49.673Z,63.00
2018-01-20T10:17:17.265Z,63.20
2018-01-20T10:19:44.889Z,63.10
2018-01-20T10:22:12.534Z,63.40
2018-01-20T10:24:40.142Z,63.00
2018-01-20T10:27:07.767Z,62.80
2018-01-20T10:29:35.364Z,62.40
2018-01-20T10:32:02.948Z,62.00
2018-01-20T10:34:31.323Z,61.50
2018-01-20T10:37:00.463Z,61.20
2018-01-20T10:39:28.844Z,61.50
2018-01-20T10:41:57.823Z,61.60
2018-01-20T10:44:25.451Z,61.60
2018-01-20T10:46:53.087Z,61.80
2018-01-20T10:49:20.695Z,61.90
2018-01-20T10:51:48.334Z,61.30
2018-01-20T10:54:15.948Z,60.90
2018-01-20T10:56:45.341Z,61.30
2018-01-20T10:59:12.941Z,61.30
2018-01-20T11:01:41.308Z,60.80
2018-01-20T11:04:09.689Z,59.90
2018-01-20T11:06:38.079Z,59.20
2018-01-20T11:09:06.504Z,57.80
2018-01-20T11:11:34.101Z,58.20
2018-01-20T11:14:01.715Z,59.00
2018-01-20T11:16:30.189Z,58.90
2018-01-20T11:18:58.650Z,58.40
2018-01-20T11:21:27.044Z,58.30
2018-01-20T11:23:55.422Z,57.20
2018-01-20T11:26:24.668Z,54.10
2018-01-20T11:28:52.256Z,54.10
2018-01-20T11:31:19.860Z,55.40
2018-01-20T11:33:47.482Z,56.40
2018-01-20T11:36:15.190Z,54.60
2018-01-20T11:38:42.804Z,53.30
2018-01-20T11:41:10.372Z,53.50
2018-01-20T11:43:38.043Z,53.30
2018-01-20T11:46:05.642Z,52.70
2018-01-20T11:48:33.240Z,52.70
2018-01-20T11:51:01.622Z,53.30
2018-01-20T11:53:29.459Z,53.30
2018-01-20T11:55:57.264Z,52.70
2018-01-20T11:58:24.890Z,52.80
2018-01-20T12:00:54.047Z,52.40
2018-01-20T12:03:21.648Z,52.40
2018-01-20T12:05:49.307Z,53.50
2018-01-20T12:08:16.935Z,53.30
2018-01-20T12:10:45.305Z,53.30
2018-01-20T12:13:13.688Z,53.90
2018-01-20T12:15:42.049Z,53.70
2018-01-20T12:18:10.409Z,55.20
2018-01-20T12:20:38.032Z,55.20
2018-01-20T12:23:05.653Z,53.30
2018-01-20T12:25:33.263Z,52.70
2018-01-20T12:28:01.667Z,54.70
2018-01-20T12:30:29.319Z,54.70
2018-01-20T12:32:56.939Z,54.30
2018-01-20T12:35:25.315Z,55.60
2018-01-20T12:37:52.959Z,55.70
2018-01-20T12:40:20.556Z,56.40
2018-01-20T12:42:48.251Z,56.40
2018-01-20T12:45:16.660Z,56.10
2018-01-20T12:47:44.324Z,56.00
2018-01-20T12:50:11.999Z,55.50
2018-01-20T12:52:39.763Z,56.20
2018-01-20T12:55:07.419Z,57.20
2018-01-20T12:57:35.043Z,57.70
2018-01-20T13:00:02.938Z,56.40
2018-01-20T13:02:31.359Z,61.70
2018-01-20T13:04:59.716Z,50.60
2018-01-20T13:07:28.107Z,52.20
2018-01-20T13:09:55.730Z,52.20
2018-01-20T13:12:25.066Z,53.30
2018-01-20T13:14:53.462Z,52.90
2018-01-20T13:17:21.062Z,52.80
2018-01-20T13:19:48.777Z,51.30
2018-01-20T13:22:17.241Z,53.80
2018-01-20T13:24:44.890Z,53.70
2018-01-20T13:27:12.486Z,55.60
2018-01-20T13:29:40.094Z,56.90
2018-01-20T13:32:07.702Z,56.80
2018-01-20T13:34:35.322Z,56.70
2018-01-20T13:37:03.013Z,57.10
2018-01-20T13:39:30.614Z,56.90
2018-01-20T13:41:58.251Z,56.20
2018-01-20T13:44:25.853Z,55.60
2018-01-20T13:46:54.246Z,61.20
2018-01-20T13:49:22.599Z,57.60
2018-01-20T13:51:51.786Z,56.40
2018-01-20T13:54:19.400Z,56.40
2018-01-20T13:56:48.030Z,57.40
2018-01-20T13:59:15.618Z,57.30
2018-01-20T14:01:43.243Z,58.40
2018-01-20T14:04:10.863Z,57.00
2018-01-20T14:06:39.229Z,56.80
2018-01-20T14:09:07.739Z,57.50
2018-01-20T14:11:36.141Z,56.60
2018-01-20T14:14:03.821Z,56.50
2018-01-20T14:16:31.447Z,55.50
2018-01-20T14:18:59.043Z,55.70
2018-01-20T14:21:26.661Z,55.20
2018-01-20T14:23:54.279Z,54.90
2018-01-20T14:26:21.930Z,55.30
2018-01-20T14:28:50.321Z,54.30
2018-01-20T14:31:18.689Z,54.50
2018-01-20T14:33:47.079Z,54.40
2018-01-20T14:36:15.467Z,54.10
2018-01-20T14:38:43.281Z,54.10
2018-01-20T14:41:10.888Z,53.80
2018-01-20T14:43:39.274Z,54.90
2018-01-20T14:46:07.686Z,54.00
2018-01-20T14:48:35.557Z,54.00
2018-01-20T14:51:04.585Z,56.00
2018-01-20T14:53:32.244Z,52.10
2018-01-20T14:55:59.887Z,54.00
2018-01-20T14:58:27.613Z,54.90
2018-01-20T15:00:55.431Z,55.70
2018-01-20T15:03:23.127Z,55.20
2018-01-20T15:05:50.832Z,54.90
2018-01-20T15:08:19.630Z,55.40
2018-01-20T15:10:48.148Z,56.10
2018-01-20T15:13:15.916Z,55.50
2018-01-20T15:15:43.534Z,55.20
2018-01-20T15:18:11.132Z,54.00
2018-01-20T15:20:38.747Z,54.60
2018-01-20T15:23:06.376Z,55.70
2018-01-20T15:25:34.019Z,56.70
2018-01-20T15:28:02.391Z,59.40
2018-01-20T15:30:29.988Z,59.30
2018-01-20T15:32:57.782Z,60.30
2018-01-20T15:35:25.424Z,61.10
2018-01-20T15:37:53.082Z,61.30
2018-01-20T15:40:20.690Z,61.40
2018-01-20T15:42:48.335Z,62.00
2018-01-20T15:45:16.093Z,62.20
2018-01-20T15:47:44.131Z,62.40
2018-01-20T15:50:12.528Z,63.10
2018-01-20T15:52:40.926Z,63.00
2018-01-20T15:55:08.561Z,63.00
2018-01-20T15:57:36.185Z,62.70
2018-01-20T16:00:03.818Z,62.00
2018-01-20T16:02:32.173Z,61.70
2018-01-20T16:05:00.614Z,61.70
2018-01-20T16:07:28.245Z,61.40
2018-01-20T16:09:56.122Z,59.80
2018-01-20T16:12:23.847Z,60.00
2018-01-20T16:14:52.295Z,59.80
2018-01-20T16:17:19.987Z,59.80
2018-01-20T16:19:47.632Z,59.00
2018-01-20T16:22:15.288Z,59.20
2018-01-20T16:24:43.266Z,60.20
2018-01-20T16:27:10.947Z,60.40
2018-01-20T16:29:39.066Z,59.90
2018-01-20T16:32:08.225Z,60.20
2018-01-20T16:34:35.889Z,60.20
2018-01-20T16:37:03.599Z,60.50
2018-01-20T16:39:31.331Z,59.40
2018-01-20T16:41:59.053Z,59.20
2018-01-20T16:44:27.486Z,60.80
2018-01-20T16:46:55.150Z,60.80
2018-01-20T16:49:22.867Z,60.10
2018-01-20T16:51:51.395Z,61.50
2018-01-20T16:54:19.167Z,61.50
2018-01-20T16:56:46.820Z,61.10
2018-01-20T16:59:14.494Z,60.20
2018-01-20T17:01:42.214Z,59.90
2018-01-20T17:04:09.856Z,59.90
2018-01-20T17:06:37.570Z,60.20
2018-01-20T17:09:05.985Z,60.00
2018-01-20T17:11:33.726Z,59.80
2018-01-20T17:14:02.156Z,59.30
2018-01-20T17:16:29.819Z,59.30
2018-01-20T17:18:57.544Z,59.90
2018-01-20T17:21:25.149Z,60.90
2018-01-20T17:23:52.832Z,59.80
2018-01-20T17:26:21.158Z,59.40
2018-01-20T17:28:48.814Z,58.50
2018-01-20T17:31:17.251Z,59.30
2018-01-20T17:33:44.893Z,59.20
2018-01-20T17:36:12.708Z,57.00
2018-01-20T17:38:40.385Z,56.20
2018-01-20T17:41:09.028Z,55.70
2018-01-20T17:43:36.624Z,55.70
2018-01-20T17:46:04.441Z,56.10
2018-01-20T17:48:32.846Z,56.70
2018-01-20T17:51:00.472Z,56.70
2018-01-20T17:53:28.118Z,57.20
2018-01-20T17:55:55.729Z,57.90
2018-01-20T17:58:23.401Z,58.60
2018-01-20T18:00:51.122Z,59.50
2018-01-20T18:03:18.772Z,60.40
2018-01-20T18:05:46.755Z,61.50
2018-01-20T18:08:14.437Z,62.20
2018-01-20T18:10:42.629Z,62.80
2018-01-20T18:13:11.074Z,63.60
2018-01-20T18:15:38.701Z,63.50
2018-01-20T18:18:06.378Z,63.80
2018-01-20T18:20:34.006Z,64.80
2018-01-20T18:23:01.617Z,65.40
2018-01-20T18:25:29.269Z,65.90
2018-01-20T18:27:56.918Z,66.80
2018-01-20T18:30:25.362Z,67.40
2018-01-20T18:32:53.017Z,67.40
2018-01-20T18:35:20.673Z,67.60
2018-01-20T18:37:48.584Z,68.30
2018-01-20T18:40:16.205Z,68.70
2018-01-20T18:42:43.828Z,69.00
2018-01-20T18:45:12.957Z,69.90
2018-01-20T18:47:40.632Z,69.90
2018-01-20T18:50:08.294Z,70.30
2018-01-20T18:52:35.928Z,70.50
2018-01-20T18:55:04.329Z,71.30
2018-01-20T18:57:32.706Z,71.60
2018-01-20T19:00:01.141Z,71.70
2018-01-20T19:02:28.838Z,71.70
2018-01-20T19:04:56.647Z,72.00
2018-01-20T19:07:24.344Z,72.10
2018-01-20T19:09:52.008Z,72.10
2018-01-20T19:12:19.680Z,72.30
2018-01-20T19:14:47.276Z,72.50
2018-01-20T19:17:16.383Z,73.00
2018-01-20T19:19:44.034Z,73.00
2018-01-20T19:22:11.688Z,73.10
2018-01-20T19:24:39.333Z,73.20
2018-01-20T19:27:07.024Z,73.30
2018-01-20T19:29:34.712Z,73.50
2018-01-20T19:32:02.395Z,73.60
2018-01-20T19:34:30.845Z,73.70
2018-01-20T19:36:58.658Z,73.70
2018-01-20T19:39:27.083Z,73.70
2018-01-20T19:41:54.762Z,73.70
2018-01-20T19:44:22.911Z,73.70
2018-01-20T19:46:50.575Z,73.70
2018-01-20T19:49:18.357Z,73.90
2018-01-20T19:51:46.758Z,74.00
2018-01-20T19:54:14.498Z,73.90
2018-01-20T19:56:42.160Z,74.40
2018-01-20T19:59:09.997Z,74.00
2018-01-20T20:01:38.460Z,74.10
2018-01-20T20:04:07.327Z,74.20
2018-01-20T20:06:35.010Z,74.20
2018-01-20T20:09:02.672Z,74.30
2018-01-20T20:11:30.605Z,74.40
2018-01-20T20:13:58.400Z,74.40
2018-01-20T20:16:26.213Z,74.50
2018-01-20T20:18:54.017Z,74.40
2018-01-20T20:21:21.760Z,74.50
2018-01-20T20:23:50.250Z,74.60
2018-01-20T20:26:18.719Z,74.70
2018-01-20T20:28:48.022Z,74.40
2018-01-20T20:31:15.739Z,74.40
2018-01-20T20:33:43.438Z,74.30
2018-01-20T20:36:11.130Z,74.20
2018-01-20T20:38:39.595Z,73.80
2018-01-20T20:41:07.336Z,73.70
2018-01-20T20:43:35.036Z,73.70
2018-01-20T20:46:02.780Z,73.50
2018-01-20T20:48:30.655Z,73.40
2018-01-20T20:50:58.334Z,73.40
2018-01-20T20:53:26.177Z,73.30
2018-01-20T20:55:53.943Z,73.20
2018-01-20T20:58:21.730Z,73.10
2018-01-20T21:00:49.444Z,72.80
2018-01-20T21:03:18.676Z,72.40
2018-01-20T21:05:46.372Z,72.40
2018-01-20T21:08:14.089Z,72.30
2018-01-20T21:10:42.552Z,72.40
2018-01-20T21:13:11.736Z,72.20
2018-01-20T21:15:39.455Z,72.20
2018-01-20T21:18:07.906Z,72.30
2018-01-20T21:20:36.654Z,72.50
2018-01-20T21:23:05.063Z,72.20
2018-01-20T21:25:32.812Z,72.40
2018-01-20T21:28:00.521Z,72.50
2018-01-20T21:30:30.642Z,72.50
2018-01-20T21:32:59.118Z,72.60
2018-01-20T21:35:26.817Z,72.60
2018-01-20T21:37:55.233Z,72.80
2018-01-20T21:40:23.206Z,72.80
2018-01-20T21:42:50.868Z,72.90
2018-01-20T21:45:18.577Z,73.10
2018-01-20T21:47:46.223Z,73.10
2018-01-20T21:50:14.231Z,73.20
2018-01-20T21:52:43.422Z,73.40
2018-01-20T21:55:12.171Z,73.40
2018-01-20T21:57:39.921Z,73.40
2018-01-20T22:00:08.307Z,73.40
2018-01-20T22:02:36.119Z,73.40
2018-01-20T22:05:03.804Z,73.50
2018-01-20T22:07:31.535Z,73.60
2018-01-20T22:09:59.208Z,73.60
2018-01-20T22:12:26.890Z,73.40
2018-01-20T22:14:54.493Z,73.20
2018-01-20T22:17:22.873Z,73.20
2018-01-20T22:19:50.546Z,73.10
2018-01-20T22:22:19.009Z,73.40
2018-01-20T22:24:47.444Z,73.70
2018-01-20T22:27:15.077Z,73.60
2018-01-20T22:29:42.751Z,73.60
2018-01-20T22:32:10.355Z,73.60
2018-01-20T22:34:37.964Z,73.60
2018-01-20T22:37:05.558Z,73.70
2018-01-20T22:39:33.956Z,74.10
2018-01-20T22:42:01.592Z,74.10
2018-01-20T22:44:29.962Z,74.00
2018-01-20T22:46:57.910Z,74.00
2018-01-20T22:49:25.512Z,74.00
2018-01-20T22:51:54.632Z,74.20
2018-01-20T22:54:22.275Z,74.20
2018-01-20T22:56:51.398Z,74.30
2018-01-20T22:59:20.070Z,74.50
2018-01-20T23:01:47.668Z,74.50
2018-01-20T23:04:15.313Z,74.70
2018-01-20T23:06:43.684Z,74.50
2018-01-20T23:09:12.054Z,74.70
2018-01-20T23:11:39.764Z,74.70
2018-01-20T23:14:07.345Z,74.90
2018-01-20T23:16:34.967Z,75.00
2018-01-20T23:19:03.347Z,75.10
2018-01-20T23:21:32.639Z,75.00
2018-01-20T23:24:00.241Z,74.90
2018-01-20T23:26:28.610Z,75.10
2018-01-20T23:28:56.238Z,75.00
2018-01-20T23:31:23.877Z,75.10
2018-01-20T23:33:51.511Z,74.90
2018-01-20T23:36:20.135Z,75.30
2018-01-20T23:38:47.761Z,74.60
2018-01-20T23:41:16.181Z,74.80
2018-01-20T23:43:43.780Z,74.80
2018-01-20T23:46:11.425Z,74.80
2018-01-20T23:48:39.015Z,74.70
2018-01-20T23:51:06.852Z,74.70
2018-01-20T23:53:34.469Z,74.60
2018-01-20T23:56:03.623Z,74.20
2018-01-20T23:58:31.239Z,74.20
